sensor_id;sensor_type;location;lat;lon;timestamp;pressure;altitude;pressure_sealevel;temperature;humidity
44481;BME280;30184;42.018;23.670;2023-02-02T00:02:15;91546.19;;;-0.62;72.13
44481;BME280;30184;42.018;23.670;2023-02-02T00:04:46;91421.97;;;-1.82;72.53
44481;BME280;30184;42.018;23.670;2023-02-02T00:07:15;91544.88;;;-1.01;73.13
44481;BME280;30184;42.018;23.670;2023-02-02T00:09:44;91517.47;;;-0.76;72.67
44481;BME280;30184;42.018;23.670;2023-02-02T00:12:13;91514.31;;;-0.85;72.50
44481;BME280;30184;42.018;23.670;2023-02-02T00:14:42;91532.47;;;-0.64;72.51
44481;BME280;30184;42.018;23.670;2023-02-02T00:17:10;91558.59;;;-0.73;73.37
44481;BME280;30184;42.018;23.670;2023-02-02T00:19:40;91529.41;;;-0.66;73.73
44481;BME280;30184;42.018;23.670;2023-02-02T00:22:10;91533.63;;;-0.65;73.80
44481;BME280;30184;42.018;23.670;2023-02-02T00:24:39;91529.75;;;-0.67;73.11
44481;BME280;30184;42.018;23.670;2023-02-02T00:27:08;91530.06;;;-0.72;72.94
44481;BME280;30184;42.018;23.670;2023-02-02T00:29:39;91537.38;;;-1.19;72.88
44481;BME280;30184;42.018;23.670;2023-02-02T00:32:08;91538.03;;;-0.76;73.01
44481;BME280;30184;42.018;23.670;2023-02-02T00:34:37;91536.47;;;-0.77;73.67
44481;BME280;30184;42.018;23.670;2023-02-02T00:37:06;91520.28;;;-0.91;74.18
44481;BME280;30184;42.018;23.670;2023-02-02T00:39:36;91531.84;;;-0.84;74.68
44481;BME280;30184;42.018;23.670;2023-02-02T00:42:06;91523.78;;;-0.87;74.38
44481;BME280;30184;42.018;23.670;2023-02-02T00:44:36;91328.50;;;-2.56;74.23
44481;BME280;30184;42.018;23.670;2023-02-02T00:47:22;91527.16;;;-0.90;73.85
44481;BME280;30184;42.018;23.670;2023-02-02T00:49:51;91520.91;;;-1.01;73.83
44481;BME280;30184;42.018;23.670;2023-02-02T00:52:20;91533.22;;;-0.93;74.11
44481;BME280;30184;42.018;23.670;2023-02-02T00:54:51;91396.28;;;-1.98;73.62
44481;BME280;30184;42.018;23.670;2023-02-02T00:57:21;91528.28;;;-0.91;73.80
44481;BME280;30184;42.018;23.670;2023-02-02T00:59:49;91345.75;;;-2.24;74.07
44481;BME280;30184;42.018;23.670;2023-02-02T01:02:18;91530.22;;;-0.88;74.10
44481;BME280;30184;42.018;23.670;2023-02-02T01:04:47;91502.25;;;-1.01;74.17
44481;BME280;30184;42.018;23.670;2023-02-02T01:07:16;91359.22;;;-2.36;74.06
44481;BME280;30184;42.018;23.670;2023-02-02T01:09:45;91362.78;;;-2.48;74.37
44481;BME280;30184;42.018;23.670;2023-02-02T01:12:16;91520.28;;;-0.91;74.50
44481;BME280;30184;42.018;23.670;2023-02-02T01:14:45;91527.16;;;-0.90;74.60
44481;BME280;30184;42.018;23.670;2023-02-02T01:17:13;91442.25;;;-1.74;74.92
44481;BME280;30184;42.018;23.670;2023-02-02T01:19:42;91469.72;;;-1.67;74.53
44481;BME280;30184;42.018;23.670;2023-02-02T01:22:12;91508.34;;;-1.01;74.38
44481;BME280;30184;42.018;23.670;2023-02-02T01:24:41;91525.25;;;-0.90;74.37
44481;BME280;30184;42.018;23.670;2023-02-02T01:27:10;91536.53;;;-1.00;74.59
44481;BME280;30184;42.018;23.670;2023-02-02T01:29:40;91524.56;;;-0.87;74.57
44481;BME280;30184;42.018;23.670;2023-02-02T01:32:09;91523.84;;;-0.84;74.53
44481;BME280;30184;42.018;23.670;2023-02-02T01:34:38;91468.91;;;-1.22;74.32
44481;BME280;30184;42.018;23.670;2023-02-02T01:37:09;91501.28;;;-0.90;74.35
44481;BME280;30184;42.018;23.670;2023-02-02T01:39:37;91513.22;;;-0.80;74.75
44481;BME280;30184;42.018;23.670;2023-02-02T01:42:11;91377.22;;;-2.26;75.01
44481;BME280;30184;42.018;23.670;2023-02-02T01:45:17;91511.38;;;-0.76;74.72
44481;BME280;30184;42.018;23.670;2023-02-02T01:47:49;91485.00;;;-0.85;74.96
44481;BME280;30184;42.018;23.670;2023-02-02T01:50:22;91501.88;;;-0.73;74.89
44481;BME280;30184;42.018;23.670;2023-02-02T01:52:54;91513.53;;;-0.85;75.00
44481;BME280;30184;42.018;23.670;2023-02-02T01:55:27;91447.47;;;-1.29;74.79
44481;BME280;30184;42.018;23.670;2023-02-02T01:58:00;91455.72;;;-1.11;75.00
44481;BME280;30184;42.018;23.670;2023-02-02T02:00:34;91505.38;;;-0.69;75.12
44481;BME280;30184;42.018;23.670;2023-02-02T02:03:05;91457.06;;;-1.24;75.05
44481;BME280;30184;42.018;23.670;2023-02-02T02:05:40;91436.41;;;-1.04;74.68
44481;BME280;30184;42.018;23.670;2023-02-02T02:08:14;91266.22;;;-2.59;74.40
44481;BME280;30184;42.018;23.670;2023-02-02T02:10:45;91438.72;;;-1.29;74.46
44481;BME280;30184;42.018;23.670;2023-02-02T02:13:14;91495.13;;;-0.67;74.56
44481;BME280;30184;42.018;23.670;2023-02-02T02:18:53;91482.22;;;-0.65;74.66
44481;BME280;30184;42.018;23.670;2023-02-02T02:21:49;91362.81;;;-1.49;74.67
44481;BME280;30184;42.018;23.670;2023-02-02T02:25:09;91492.47;;;-0.67;74.78
44481;BME280;30184;42.018;23.670;2023-02-02T02:34:17;91503.16;;;-0.64;75.78
44481;BME280;30184;42.018;23.670;2023-02-02T02:36:55;91334.56;;;-1.84;75.72
44481;BME280;30184;42.018;23.670;2023-02-02T02:39:32;91487.53;;;-0.65;76.03
44481;BME280;30184;42.018;23.670;2023-02-02T02:42:08;91515.31;;;-0.66;76.11
44481;BME280;30184;42.018;23.670;2023-02-02T02:44:40;91501.22;;;-0.67;76.20
44481;BME280;30184;42.018;23.670;2023-02-02T02:47:10;91500.81;;;-0.69;76.30
44481;BME280;30184;42.018;23.670;2023-02-02T02:49:45;91509.06;;;-0.78;76.66
44481;BME280;30184;42.018;23.670;2023-02-02T02:52:15;91404.75;;;-1.66;76.70
44481;BME280;30184;42.018;23.670;2023-02-02T02:54:47;91361.97;;;-2.06;76.51
44481;BME280;30184;42.018;23.670;2023-02-02T02:57:24;91495.50;;;-0.95;77.23
44481;BME280;30184;42.018;23.670;2023-02-02T03:00:04;91530.03;;;-1.02;77.40
44481;BME280;30184;42.018;23.670;2023-02-02T03:02:42;91497.97;;;-1.09;77.63
44481;BME280;30184;42.018;23.670;2023-02-02T03:05:27;91474.94;;;-1.25;77.63
44481;BME280;30184;42.018;23.670;2023-02-02T03:08:04;91500.06;;;-1.22;78.01
44481;BME280;30184;42.018;23.670;2023-02-02T03:10:37;91490.13;;;-1.25;77.97
44481;BME280;30184;42.018;23.670;2023-02-02T03:13:10;91369.13;;;-2.33;78.06
44481;BME280;30184;42.018;23.670;2023-02-02T03:15:39;91491.94;;;-1.33;78.38
44481;BME280;30184;42.018;23.670;2023-02-02T03:18:09;91476.25;;;-1.38;78.51
44481;BME280;30184;42.018;23.670;2023-02-02T03:20:41;91390.84;;;-2.50;78.66
44481;BME280;30184;42.018;23.670;2023-02-02T03:23:11;91481.81;;;-1.46;78.72
44481;BME280;30184;42.018;23.670;2023-02-02T03:25:40;91390.63;;;-2.19;78.89
44481;BME280;30184;42.018;23.670;2023-02-02T03:28:09;91485.84;;;-1.56;78.91
44481;BME280;30184;42.018;23.670;2023-02-02T03:30:39;91489.88;;;-1.66;79.33
44481;BME280;30184;42.018;23.670;2023-02-02T03:33:10;91479.47;;;-1.74;79.17
44481;BME280;30184;42.018;23.670;2023-02-02T03:35:41;91488.53;;;-1.79;79.75
44481;BME280;30184;42.018;23.670;2023-02-02T03:38:10;91238.69;;;-3.81;79.62
44481;BME280;30184;42.018;23.670;2023-02-02T03:40:41;91463.63;;;-2.13;79.94
44481;BME280;30184;42.018;23.670;2023-02-02T03:43:09;91486.38;;;-1.93;80.29
44481;BME280;30184;42.018;23.670;2023-02-02T03:45:38;91486.72;;;-1.94;80.36
44481;BME280;30184;42.018;23.670;2023-02-02T03:48:08;91477.59;;;-1.97;80.44
44481;BME280;30184;42.018;23.670;2023-02-02T03:50:37;91482.84;;;-2.00;80.65
44481;BME280;30184;42.018;23.670;2023-02-02T03:53:07;91354.56;;;-2.85;80.67
44481;BME280;30184;42.018;23.670;2023-02-02T03:55:36;91482.78;;;-2.04;80.63
44481;BME280;30184;42.018;23.670;2023-02-02T03:58:07;91479.72;;;-2.06;80.79
44481;BME280;30184;42.018;23.670;2023-02-02T04:00:36;91472.78;;;-2.10;81.20
44481;BME280;30184;42.018;23.670;2023-02-02T04:03:05;91473.56;;;-2.10;81.19
44481;BME280;30184;42.018;23.670;2023-02-02T04:05:34;91478.09;;;-2.10;81.12
44481;BME280;30184;42.018;23.670;2023-02-02T04:08:03;91481.53;;;-2.10;81.20
44481;BME280;30184;42.018;23.670;2023-02-02T04:10:33;91477.69;;;-2.12;81.45
44481;BME280;30184;42.018;23.670;2023-02-02T04:13:02;91478.84;;;-2.13;81.45
44481;BME280;30184;42.018;23.670;2023-02-02T04:15:31;91294.72;;;-3.44;81.31
44481;BME280;30184;42.018;23.670;2023-02-02T04:18:00;91486.03;;;-2.14;81.50
44481;BME280;30184;42.018;23.670;2023-02-02T04:20:29;91483.66;;;-2.19;81.73
44481;BME280;30184;42.018;23.670;2023-02-02T04:22:58;91488.91;;;-2.22;81.49
44481;BME280;30184;42.018;23.670;2023-02-02T04:25:27;91498.78;;;-2.23;81.72
44481;BME280;30184;42.018;23.670;2023-02-02T04:27:59;91496.03;;;-2.27;81.70
44481;BME280;30184;42.018;23.670;2023-02-02T04:30:28;91494.44;;;-2.31;81.78
44481;BME280;30184;42.018;23.670;2023-02-02T04:32:58;91476.44;;;-2.41;81.74
44481;BME280;30184;42.018;23.670;2023-02-02T04:35:28;91490.25;;;-2.32;81.82
44481;BME280;30184;42.018;23.670;2023-02-02T04:37:57;91503.81;;;-2.37;82.43
44481;BME280;30184;42.018;23.670;2023-02-02T04:40:26;91496.91;;;-2.42;82.88
44481;BME280;30184;42.018;23.670;2023-02-02T04:42:56;91470.97;;;-2.68;82.61
44481;BME280;30184;42.018;23.670;2023-02-02T04:45:27;91505.56;;;-2.45;82.60
44481;BME280;30184;42.018;23.670;2023-02-02T04:47:56;91493.53;;;-2.58;82.63
44481;BME280;30184;42.018;23.670;2023-02-02T04:50:25;91498.50;;;-2.56;82.88
44481;BME280;30184;42.018;23.670;2023-02-02T04:52:54;91436.94;;;-3.01;82.98
44481;BME280;30184;42.018;23.670;2023-02-02T04:55:23;91537.31;;;-2.52;83.20
44481;BME280;30184;42.018;23.670;2023-02-02T04:57:52;91406.09;;;-3.79;83.00
44481;BME280;30184;42.018;23.670;2023-02-02T05:00:21;91529.28;;;-2.55;83.30
44481;BME280;30184;42.018;23.670;2023-02-02T05:02:52;91531.94;;;-2.55;83.32
44481;BME280;30184;42.018;23.670;2023-02-02T05:05:21;91422.25;;;-3.84;83.24
44481;BME280;30184;42.018;23.670;2023-02-02T05:07:50;91531.44;;;-2.61;83.46
44481;BME280;30184;42.018;23.670;2023-02-02T05:10:20;91477.13;;;-3.37;83.63
44481;BME280;30184;42.018;23.670;2023-02-02T05:12:51;91539.31;;;-2.65;83.68
44481;BME280;30184;42.018;23.670;2023-02-02T05:15:20;91493.94;;;-2.94;83.69
44481;BME280;30184;42.018;23.670;2023-02-02T05:17:49;91443.00;;;-3.19;83.76
44481;BME280;30184;42.018;23.670;2023-02-02T05:20:19;91527.94;;;-2.65;84.01
44481;BME280;30184;42.018;23.670;2023-02-02T05:22:48;91496.28;;;-3.59;83.79
44481;BME280;30184;42.018;23.670;2023-02-02T05:25:17;91543.09;;;-2.66;83.94
44481;BME280;30184;42.018;23.670;2023-02-02T05:27:49;91537.72;;;-2.69;83.92
44481;BME280;30184;42.018;23.670;2023-02-02T05:30:25;91481.16;;;-3.08;83.68
44481;BME280;30184;42.018;23.670;2023-02-02T05:32:55;91534.50;;;-2.78;83.82
44481;BME280;30184;42.018;23.670;2023-02-02T05:35:25;91601.81;;;-2.71;83.97
44481;BME280;30184;42.018;23.670;2023-02-02T05:37:54;91537.31;;;-2.71;83.92
44481;BME280;30184;42.018;23.670;2023-02-02T05:40:25;91489.31;;;-3.17;83.95
44481;BME280;30184;42.018;23.670;2023-02-02T05:42:56;91416.72;;;-4.26;83.94
44481;BME280;30184;42.018;23.670;2023-02-02T05:45:26;91529.75;;;-2.88;84.17
44481;BME280;30184;42.018;23.670;2023-02-02T05:47:55;91362.72;;;-4.21;84.07
44481;BME280;30184;42.018;23.670;2023-02-02T05:50:25;91557.22;;;-2.81;84.31
44481;BME280;30184;42.018;23.670;2023-02-02T05:53:03;91549.50;;;-2.86;84.29
44481;BME280;30184;42.018;23.670;2023-02-02T05:55:33;91546.44;;;-2.88;84.23
44481;BME280;30184;42.018;23.670;2023-02-02T05:58:01;91448.09;;;-4.12;83.87
44481;BME280;30184;42.018;23.670;2023-02-02T06:00:31;91550.22;;;-2.89;84.21
44481;BME280;30184;42.018;23.670;2023-02-02T06:03:00;91553.22;;;-2.90;84.23
44481;BME280;30184;42.018;23.670;2023-02-02T06:05:30;91557.75;;;-2.91;84.43
44481;BME280;30184;42.018;23.670;2023-02-02T06:07:59;91414.44;;;-4.27;84.39
44481;BME280;30184;42.018;23.670;2023-02-02T06:10:28;91559.28;;;-2.90;84.57
44481;BME280;30184;42.018;23.670;2023-02-02T06:12:58;91569.56;;;-2.88;84.51
44481;BME280;30184;42.018;23.670;2023-02-02T06:15:27;91554.75;;;-2.89;84.57
44481;BME280;30184;42.018;23.670;2023-02-02T06:17:56;91448.94;;;-3.77;84.39
44481;BME280;30184;42.018;23.670;2023-02-02T06:20:27;91568.28;;;-2.94;84.43
44481;BME280;30184;42.018;23.670;2023-02-02T06:23:04;91478.63;;;-3.71;84.24
44481;BME280;30184;42.018;23.670;2023-02-02T06:25:33;91579.91;;;-2.83;84.21
44481;BME280;30184;42.018;23.670;2023-02-02T06:28:05;91426.09;;;-4.44;83.92
44481;BME280;30184;42.018;23.670;2023-02-02T06:30:34;91499.97;;;-3.80;84.06
44481;BME280;30184;42.018;23.670;2023-02-02T06:33:03;91581.03;;;-2.84;84.15
44481;BME280;30184;42.018;23.670;2023-02-02T06:35:33;91580.97;;;-2.88;83.96
44481;BME280;30184;42.018;23.670;2023-02-02T06:38:04;91431.34;;;-3.85;84.03
44481;BME280;30184;42.018;23.670;2023-02-02T06:40:37;91592.84;;;-2.82;84.17
44481;BME280;30184;42.018;23.670;2023-02-02T06:43:07;91596.31;;;-2.78;84.03
44481;BME280;30184;42.018;23.670;2023-02-02T06:45:38;91396.81;;;-4.51;83.81
44481;BME280;30184;42.018;23.670;2023-02-02T06:48:07;91587.34;;;-2.73;83.86
44481;BME280;30184;42.018;23.670;2023-02-02T06:50:37;91580.72;;;-2.64;84.25
44481;BME280;30184;42.018;23.670;2023-02-02T06:53:07;91509.63;;;-3.24;83.67
44481;BME280;30184;42.018;23.670;2023-02-02T06:55:37;91514.56;;;-2.88;83.17
44481;BME280;30184;42.018;23.670;2023-02-02T06:58:08;91579.22;;;-2.26;81.96
44481;BME280;30184;42.018;23.670;2023-02-02T07:00:37;91514.75;;;-2.42;82.20
44481;BME280;30184;42.018;23.670;2023-02-02T07:03:06;91559.06;;;-1.85;82.28
44481;BME280;30184;42.018;23.670;2023-02-02T07:05:35;91604.81;;;-1.57;81.98
44481;BME280;30184;42.018;23.670;2023-02-02T07:08:06;91588.22;;;-1.27;80.89
44481;BME280;30184;42.018;23.670;2023-02-02T07:10:36;91422.91;;;-2.40;80.37
44481;BME280;30184;42.018;23.670;2023-02-02T07:13:05;91582.44;;;-0.84;79.72
44481;BME280;30184;42.018;23.670;2023-02-02T07:15:37;91578.88;;;-0.91;78.02
44481;BME280;30184;42.018;23.670;2023-02-02T07:18:07;91586.06;;;-0.43;77.27
44481;BME280;30184;42.018;23.670;2023-02-02T07:20:36;91587.56;;;-0.15;77.08
44481;BME280;30184;42.018;23.670;2023-02-02T07:23:09;91578.75;;;0.14;76.51
44481;BME280;30184;42.018;23.670;2023-02-02T07:25:38;91584.34;;;0.35;75.32
44481;BME280;30184;42.018;23.670;2023-02-02T07:28:11;91508.44;;;-0.67;74.09
44481;BME280;30184;42.018;23.670;2023-02-02T07:30:42;91591.19;;;-0.01;72.75
44481;BME280;30184;42.018;23.670;2023-02-02T07:33:11;91592.09;;;0.88;72.25
44481;BME280;30184;42.018;23.670;2023-02-02T07:35:40;91584.56;;;1.01;71.35
44481;BME280;30184;42.018;23.670;2023-02-02T07:38:12;91571.75;;;1.24;70.82
44481;BME280;30184;42.018;23.670;2023-02-02T07:40:44;91578.44;;;1.48;69.71
44481;BME280;30184;42.018;23.670;2023-02-02T07:43:14;91574.72;;;1.70;68.81
44481;BME280;30184;42.018;23.670;2023-02-02T07:45:43;91450.47;;;0.81;68.91
44481;BME280;30184;42.018;23.670;2023-02-02T07:48:12;91585.13;;;1.86;67.30
44481;BME280;30184;42.018;23.670;2023-02-02T07:50:42;91481.44;;;0.89;67.43
44481;BME280;30184;42.018;23.670;2023-02-02T07:53:13;91571.56;;;2.37;67.44
44481;BME280;30184;42.018;23.670;2023-02-02T07:55:43;91570.84;;;2.51;65.58
44481;BME280;30184;42.018;23.670;2023-02-02T07:58:13;91565.09;;;2.52;64.05
44481;BME280;30184;42.018;23.670;2023-02-02T08:00:46;91549.81;;;2.63;64.07
44481;BME280;30184;42.018;23.670;2023-02-02T08:03:15;91569.00;;;2.97;62.85
44481;BME280;30184;42.018;23.670;2023-02-02T08:05:46;91569.78;;;3.02;62.83
44481;BME280;30184;42.018;23.670;2023-02-02T08:08:17;91398.94;;;1.67;60.31
44481;BME280;30184;42.018;23.670;2023-02-02T08:10:47;91554.06;;;3.35;61.63
44481;BME280;30184;42.018;23.670;2023-02-02T08:13:16;91556.38;;;3.51;61.85
44481;BME280;30184;42.018;23.670;2023-02-02T08:15:45;91559.44;;;3.50;61.36
44481;BME280;30184;42.018;23.670;2023-02-02T08:18:16;91560.94;;;3.68;60.62
44481;BME280;30184;42.018;23.670;2023-02-02T08:20:45;91528.34;;;3.66;58.87
44481;BME280;30184;42.018;23.670;2023-02-02T08:23:14;91551.69;;;3.98;59.41
44481;BME280;30184;42.018;23.670;2023-02-02T08:25:45;91413.16;;;2.99;58.75
44481;BME280;30184;42.018;23.670;2023-02-02T08:28:15;91556.56;;;4.24;58.33
44481;BME280;30184;42.018;23.670;2023-02-02T08:30:45;91560.38;;;4.34;57.31
44481;BME280;30184;42.018;23.670;2023-02-02T08:33:14;91430.59;;;3.64;56.99
44481;BME280;30184;42.018;23.670;2023-02-02T08:35:44;91538.38;;;4.57;56.09
44481;BME280;30184;42.018;23.670;2023-02-02T08:38:14;91531.03;;;4.64;55.92
44481;BME280;30184;42.018;23.670;2023-02-02T08:40:45;91536.66;;;4.87;54.12
44481;BME280;30184;42.018;23.670;2023-02-02T08:43:17;91536.19;;;5.00;54.55
44481;BME280;30184;42.018;23.670;2023-02-02T08:45:50;91523.00;;;5.16;53.71
44481;BME280;30184;42.018;23.670;2023-02-02T08:48:21;91525.56;;;5.30;54.10
44481;BME280;30184;42.018;23.670;2023-02-02T08:50:52;91515.47;;;5.41;53.59
44481;BME280;30184;42.018;23.670;2023-02-02T08:53:23;91499.00;;;5.36;53.06
44481;BME280;30184;42.018;23.670;2023-02-02T08:56:01;91516.56;;;5.03;51.48
44481;BME280;30184;42.018;23.670;2023-02-02T08:58:31;91470.47;;;5.45;50.51
44481;BME280;30184;42.018;23.670;2023-02-02T09:01:06;91477.03;;;5.82;50.69
44481;BME280;30184;42.018;23.670;2023-02-02T09:03:38;91491.00;;;6.07;49.56
44481;BME280;30184;42.018;23.670;2023-02-02T09:06:09;91492.31;;;6.26;46.61
44481;BME280;30184;42.018;23.670;2023-02-02T09:08:39;91418.97;;;5.43;44.28
44481;BME280;30184;42.018;23.670;2023-02-02T09:11:14;91314.53;;;4.15;44.74
44481;BME280;30184;42.018;23.670;2023-02-02T09:13:45;91462.41;;;6.47;43.41
44481;BME280;30184;42.018;23.670;2023-02-02T09:16:17;91476.25;;;6.76;45.54
44481;BME280;30184;42.018;23.670;2023-02-02T09:18:48;91473.13;;;6.78;42.77
44481;BME280;30184;42.018;23.670;2023-02-02T09:21:18;91470.34;;;6.85;42.72
44481;BME280;30184;42.018;23.670;2023-02-02T09:23:48;91464.19;;;6.84;43.42
44481;BME280;30184;42.018;23.670;2023-02-02T09:26:21;91470.22;;;6.92;41.90
44481;BME280;30184;42.018;23.670;2023-02-02T09:28:52;91456.91;;;7.04;42.53
44481;BME280;30184;42.018;23.670;2023-02-02T09:31:23;91449.19;;;7.06;41.49
44481;BME280;30184;42.018;23.670;2023-02-02T09:33:58;91447.56;;;7.13;41.95
44481;BME280;30184;42.018;23.670;2023-02-02T09:36:29;91443.19;;;7.19;41.35
44481;BME280;30184;42.018;23.670;2023-02-02T09:38:58;91440.16;;;7.17;41.32
44481;BME280;30184;42.018;23.670;2023-02-02T09:41:49;91325.97;;;6.30;41.37
44481;BME280;30184;42.018;23.670;2023-02-02T09:44:34;91389.59;;;6.97;41.56
44481;BME280;30184;42.018;23.670;2023-02-02T09:47:16;91438.00;;;7.31;41.11
44481;BME280;30184;42.018;23.670;2023-02-02T09:49:56;91409.13;;;7.05;41.62
44481;BME280;30184;42.018;23.670;2023-02-02T09:52:30;91423.97;;;6.93;42.01
44481;BME280;30184;42.018;23.670;2023-02-02T09:55:09;91428.88;;;6.75;41.90
44481;BME280;30184;42.018;23.670;2023-02-02T09:57:48;91416.75;;;6.60;42.53
44481;BME280;30184;42.018;23.670;2023-02-02T10:00:23;91431.78;;;6.30;42.07
44481;BME280;30184;42.018;23.670;2023-02-02T10:02:57;91347.88;;;5.41;42.45
44481;BME280;30184;42.018;23.670;2023-02-02T10:05:41;91264.19;;;5.01;43.31
44481;BME280;30184;42.018;23.670;2023-02-02T10:08:16;91413.09;;;5.86;42.71
44481;BME280;30184;42.018;23.670;2023-02-02T10:11:10;91412.47;;;5.75;43.17
44481;BME280;30184;42.018;23.670;2023-02-02T10:13:46;91386.50;;;5.57;43.10
44481;BME280;30184;42.018;23.670;2023-02-02T10:16:18;91407.63;;;5.62;43.55
44481;BME280;30184;42.018;23.670;2023-02-02T10:18:54;91311.59;;;4.84;42.89
44481;BME280;30184;42.018;23.670;2023-02-02T10:21:30;91398.81;;;5.24;42.24
44481;BME280;30184;42.018;23.670;2023-02-02T10:24:04;91381.50;;;5.59;42.39
44481;BME280;30184;42.018;23.670;2023-02-02T10:26:45;91398.91;;;5.51;42.57
44481;BME280;30184;42.018;23.670;2023-02-02T10:29:17;91390.38;;;5.56;43.19
44481;BME280;30184;42.018;23.670;2023-02-02T10:31:54;91385.81;;;5.53;42.43
44481;BME280;30184;42.018;23.670;2023-02-02T10:34:32;91381.50;;;5.59;41.77
44481;BME280;30184;42.018;23.670;2023-02-02T10:37:23;91360.56;;;5.40;41.22
44481;BME280;30184;42.018;23.670;2023-02-02T10:40:11;91370.31;;;5.65;41.73
44481;BME280;30184;42.018;23.670;2023-02-02T10:42:52;91296.13;;;4.96;41.69
44481;BME280;30184;42.018;23.670;2023-02-02T10:45:51;91352.66;;;5.60;42.22
44481;BME280;30184;42.018;23.670;2023-02-02T10:48:25;91330.88;;;5.47;41.54
44481;BME280;30184;42.018;23.670;2023-02-02T10:51:02;91369.38;;;5.75;41.09
44481;BME280;30184;42.018;23.670;2023-02-02T10:53:32;91370.56;;;5.74;41.97
44481;BME280;30184;42.018;23.670;2023-02-02T10:56:05;91364.44;;;5.73;40.29
44481;BME280;30184;42.018;23.670;2023-02-02T10:58:43;91277.19;;;5.06;41.22
44481;BME280;30184;42.018;23.670;2023-02-02T11:01:18;91196.47;;;4.79;40.48
44481;BME280;30184;42.018;23.670;2023-02-02T11:03:50;91360.13;;;6.10;41.07
44481;BME280;30184;42.018;23.670;2023-02-02T11:06:39;91350.88;;;6.11;40.20
44481;BME280;30184;42.018;23.670;2023-02-02T11:09:23;91353.97;;;6.09;40.42
44481;BME280;30184;42.018;23.670;2023-02-02T11:12:03;91355.03;;;6.15;40.27
44481;BME280;30184;42.018;23.670;2023-02-02T11:14:39;91350.41;;;6.16;40.03
44481;BME280;30184;42.018;23.670;2023-02-02T11:17:19;91222.66;;;5.06;39.61
44481;BME280;30184;42.018;23.670;2023-02-02T11:20:01;91349.97;;;6.21;39.84
44481;BME280;30184;42.018;23.670;2023-02-02T11:22:33;91284.06;;;5.72;39.91
44481;BME280;30184;42.018;23.670;2023-02-02T11:25:24;91334.66;;;6.14;40.02
44481;BME280;30184;42.018;23.670;2023-02-02T11:28:15;91151.19;;;4.74;40.02
44481;BME280;30184;42.018;23.670;2023-02-02T11:30:53;91288.56;;;6.09;40.59
44481;BME280;30184;42.018;23.670;2023-02-02T11:33:29;91242.22;;;5.94;39.85
44481;BME280;30184;42.018;23.670;2023-02-02T11:36:04;91313.97;;;6.58;39.42
44481;BME280;30184;42.018;23.670;2023-02-02T11:38:33;91157.97;;;5.43;40.13
44481;BME280;30184;42.018;23.670;2023-02-02T11:41:04;91295.84;;;6.58;40.02
44481;BME280;30184;42.018;23.670;2023-02-02T11:43:38;91190.59;;;5.72;39.97
44481;BME280;30184;42.018;23.670;2023-02-02T11:46:16;91302.00;;;6.35;39.97
44481;BME280;30184;42.018;23.670;2023-02-02T11:48:52;91254.56;;;5.34;40.33
44481;BME280;30184;42.018;23.670;2023-02-02T11:51:29;91295.31;;;6.20;40.19
44481;BME280;30184;42.018;23.670;2023-02-02T11:54:02;91285.41;;;6.14;40.76
44481;BME280;30184;42.018;23.670;2023-02-02T11:56:34;91299.50;;;6.21;40.93
44481;BME280;30184;42.018;23.670;2023-02-02T11:59:04;91279.25;;;6.13;41.33
44481;BME280;30184;42.018;23.670;2023-02-02T12:01:35;91289.47;;;6.25;41.94
44481;BME280;30184;42.018;23.670;2023-02-02T12:04:23;91190.25;;;5.16;41.24
44481;BME280;30184;42.018;23.670;2023-02-02T12:06:53;91280.50;;;6.32;41.19
44481;BME280;30184;42.018;23.670;2023-02-02T12:09:24;91291.38;;;6.25;41.18
44481;BME280;30184;42.018;23.670;2023-02-02T12:11:59;91291.34;;;6.52;39.96
44481;BME280;30184;42.018;23.670;2023-02-02T12:14:35;91281.31;;;6.52;39.49
44481;BME280;30184;42.018;23.670;2023-02-02T12:17:27;91277.41;;;6.57;40.32
44481;BME280;30184;42.018;23.670;2023-02-02T12:20:08;91234.94;;;6.18;39.94
44481;BME280;30184;42.018;23.670;2023-02-02T12:22:55;91280.41;;;6.39;40.25
44481;BME280;30184;42.018;23.670;2023-02-02T12:25:50;91281.13;;;6.16;39.38
44481;BME280;30184;42.018;23.670;2023-02-02T12:28:30;91114.53;;;4.91;40.38
44481;BME280;30184;42.018;23.670;2023-02-02T12:31:10;91303.97;;;6.31;39.85
44481;BME280;30184;42.018;23.670;2023-02-02T12:33:44;91283.09;;;6.39;39.75
44481;BME280;30184;42.018;23.670;2023-02-02T12:36:27;91282.91;;;6.50;40.01
44481;BME280;30184;42.018;23.670;2023-02-02T12:39:12;91165.13;;;5.27;39.94
44481;BME280;30184;42.018;23.670;2023-02-02T12:42:06;91149.09;;;5.70;39.45
44481;BME280;30184;42.018;23.670;2023-02-02T12:44:47;91149.75;;;5.54;39.13
44481;BME280;30184;42.018;23.670;2023-02-02T12:47:24;91303.88;;;6.85;38.96
44481;BME280;30184;42.018;23.670;2023-02-02T12:50:16;91306.09;;;6.90;39.03
44481;BME280;30184;42.018;23.670;2023-02-02T12:53:12;91271.63;;;6.78;39.33
44481;BME280;30184;42.018;23.670;2023-02-02T12:55:49;91287.63;;;6.89;39.86
44481;BME280;30184;42.018;23.670;2023-02-02T12:58:27;91286.66;;;6.99;39.68
44481;BME280;30184;42.018;23.670;2023-02-02T13:01:21;91295.28;;;7.14;39.46
44481;BME280;30184;42.018;23.670;2023-02-02T13:04:25;91078.53;;;5.58;38.63
44481;BME280;30184;42.018;23.670;2023-02-02T13:07:16;91216.81;;;6.85;39.40
44481;BME280;30184;42.018;23.670;2023-02-02T13:10:00;91263.38;;;7.08;39.57
44481;BME280;30184;42.018;23.670;2023-02-02T13:12:33;91256.47;;;6.64;38.92
44481;BME280;30184;42.018;23.670;2023-02-02T13:15:06;91109.91;;;5.69;38.96
44481;BME280;30184;42.018;23.670;2023-02-02T13:17:40;91345.13;;;7.05;40.29
44481;BME280;30184;42.018;23.670;2023-02-02T13:20:19;91224.00;;;6.91;40.69
44481;BME280;30184;42.018;23.670;2023-02-02T13:22:52;91265.78;;;7.03;39.93
44481;BME280;30184;42.018;23.670;2023-02-02T13:25:27;91132.59;;;5.68;41.01
44481;BME280;30184;42.018;23.670;2023-02-02T13:28:00;91295.03;;;7.04;40.20
44481;BME280;30184;42.018;23.670;2023-02-02T13:30:36;91128.63;;;5.76;40.15
44481;BME280;30184;42.018;23.670;2023-02-02T13:33:14;91282.19;;;6.92;39.98
44481;BME280;30184;42.018;23.670;2023-02-02T13:35:50;91146.22;;;5.57;40.64
44481;BME280;30184;42.018;23.670;2023-02-02T13:38:23;91138.63;;;5.52;39.66